ETH318 HAAB-HKJK
Flight info
| Callsign | ETH318 |
|---|---|
| Flight time | N/A |
| Altitude | 36000 |
| Route | SHALA2A SHALA UM308 RUDOL/N0485F350 UM308 LOTAS LOTAS4D |
| Aircraft | B77W/H-SDE1E2E3FGHIJ2J3J4J5M1RWXY/LB1D1 |
Departure
| Time | N/A |
|---|---|
| Airport | Addis Ababa Bole International Airport (HAAB) |
Arrival
| Time | 2026-04-30 18:07 |
|---|---|
| Airport | Jomo Kenyatta International Airport (HKJK) |
| Time | Latitude | Longitude | Altitude | Speed | Heading |
|---|---|---|---|---|---|
| 2026-04-30 17:39 | 1.10647 | 36.56621 | 36148 ft | 485 kts | 197° |
| 2026-04-30 17:41 | 0.84095 | 36.54045 | 36176 ft | 485 kts | 177° |
| 2026-04-30 17:42 | 0.77357 | 36.54367 | 36179 ft | 485 kts | 177° |
| 2026-04-30 17:43 | 0.60522 | 36.55102 | 36207 ft | 483 kts | 177° |
| 2026-04-30 17:44 | 0.40366 | 36.55975 | 36205 ft | 483 kts | 177° |
| 2026-04-30 17:46 | 0.23624 | 36.56702 | 35867 ft | 478 kts | 177° |
| 2026-04-30 17:47 | 0.10536 | 36.57271 | 33954 ft | 463 kts | 177° |
| 2026-04-30 17:48 | -0.02148 | 36.57823 | 32032 ft | 450 kts | 177° |
| 2026-04-30 17:48 | -0.11427 | 36.58225 | 30624 ft | 440 kts | 177° |
| 2026-04-30 17:49 | -0.23503 | 36.58747 | 28755 ft | 428 kts | 177° |
| 2026-04-30 17:50 | -0.35265 | 36.59262 | 26876 ft | 418 kts | 178° |
| 2026-04-30 17:51 | -0.43913 | 36.59636 | 25487 ft | 412 kts | 178° |
| 2026-04-30 17:52 | -0.52433 | 36.60006 | 24111 ft | 405 kts | 178° |
| 2026-04-30 17:53 | -0.66326 | 36.60609 | 21874 ft | 394 kts | 178° |
| 2026-04-30 17:54 | -0.77170 | 36.61079 | 20109 ft | 386 kts | 178° |
| 2026-04-30 17:55 | -0.87740 | 36.61539 | 18391 ft | 377 kts | 178° |
| 2026-04-30 17:56 | -0.98085 | 36.61988 | 16699 ft | 367 kts | 178° |
| 2026-04-30 17:57 | -1.05216 | 36.62298 | 15509 ft | 344 kts | 178° |
| 2026-04-30 17:58 | -1.12056 | 36.62595 | 14379 ft | 313 kts | 178° |
| 2026-04-30 17:59 | -1.20693 | 36.62969 | 12990 ft | 312 kts | 177° |
| 2026-04-30 18:00 | -1.29196 | 36.63340 | 11543 ft | 288 kts | 177° |
| 2026-04-30 18:00 | -1.34950 | 36.63589 | 10694 ft | 264 kts | 177° |
| 2026-04-30 18:01 | -1.38521 | 36.64003 | 10454 ft | 256 kts | 151° |
| 2026-04-30 18:02 | -1.41117 | 36.68511 | 10051 ft | 266 kts | 107° |
| 2026-04-30 18:02 | -1.42632 | 36.73658 | 8904 ft | 248 kts | 108° |
| 2026-04-30 18:03 | -1.42341 | 36.78345 | 8427 ft | 237 kts | 62° |
| 2026-04-30 18:04 | -1.39584 | 36.82260 | 7594 ft | 215 kts | 57° |
| 2026-04-30 18:05 | -1.36571 | 36.86404 | 6650 ft | 174 kts | 57° |
| 2026-04-30 18:06 | -1.33822 | 36.90171 | 5721 ft | 166 kts | 55° |
| 2026-04-30 18:07 | -1.31588 | 36.93239 | 5310 ft | 29 kts | 54° |
| 2026-04-30 18:08 | -1.31802 | 36.93472 | 5316 ft | 10 kts | 197° |
| 2026-04-30 18:09 | -1.32009 | 36.93220 | 5317 ft | 19 kts | 234° |
| 2026-04-30 18:10 | -1.32345 | 36.92760 | 5329 ft | 22 kts | 234° |
| 2026-04-30 18:11 | -1.32724 | 36.92379 | 5334 ft | 15 kts | 154° |
| 2026-04-30 18:11 | -1.32876 | 36.92351 | 5330 ft | 5 kts | 138° |
| 2026-04-30 18:12 | -1.32899 | 36.92371 | 5329 ft | 0 kts | 139° |